Time;durP1;ratioP1;P1;durP2;ratioP2;P2;SDS_P1;SDS_P2;PMS_P1;PMS_P2;Temp;Humidity;BMP_temperature;BMP_pressure;BME280_temperature;BME280_humidity;BME280_pressure;Samples;Min_cycle;Max_cycle;Signal;HPM_P1;HPM_P2
2022/08/30 00:01:34;;;;;;;5.50;1.50;;;;;;;22.97;37.38;101912.88;16144016;19;129850;-44
2022/08/30 00:06:55;;;;;;;2.15;1.27;;;;;;;22.95;37.61;101910.34;16145538;19;128859;-43
2022/08/30 00:12:19;;;;;;;2.70;1.05;;;;;;;22.96;37.74;101914.84;16145555;19;129433;-43
2022/08/30 00:17:42;;;;;;;6.90;1.95;;;;;;;22.94;37.69;101905.84;16143509;19;129377;-46
2022/08/30 00:23:04;;;;;;;2.80;1.30;;;;;;;22.95;37.80;101906.72;16141126;19;130228;-43
2022/08/30 00:28:26;;;;;;;3.63;1.20;;;;;;;22.92;37.76;101905.25;16146787;19;130304;-43
2022/08/30 00:33:48;;;;;;;2.17;1.15;;;;;;;22.92;37.36;101902.47;16144780;19;129365;-43
2022/08/30 00:39:10;;;;;;;2.33;1.10;;;;;;;22.92;37.69;101893.25;16139549;19;129048;-43
2022/08/30 00:44:32;;;;;;;3.92;1.50;;;;;;;22.92;37.95;101910.00;16143245;19;129090;-43
2022/08/30 00:49:56;;;;;;;2.58;1.25;;;;;;;22.91;37.83;101914.72;16137269;19;132456;-43
2022/08/30 00:55:19;;;;;;;3.40;1.38;;;;;;;22.89;37.52;101916.91;16142440;19;130841;-43
2022/08/30 01:00:40;;;;;;;3.15;1.30;;;;;;;22.88;37.85;101913.25;16135131;19;129528;-46
2022/08/30 01:06:04;;;;;;;2.05;1.20;;;;;;;22.89;38.11;101916.91;16139775;19;129431;-45
2022/08/30 01:11:26;;;;;;;5.00;1.27;;;;;;;22.88;37.79;101912.44;16141376;19;130603;-45
2022/08/30 01:16:49;;;;;;;3.00;1.40;;;;;;;22.87;37.66;101910.72;16138457;19;129298;-45
2022/08/30 01:22:26;;;;;;;6.45;1.30;;;;;;;22.87;37.83;101908.78;16135907;19;129267;-43
2022/08/30 01:27:54;;;;;;;2.92;1.27;;;;;;;22.87;38.35;101919.09;16140473;19;130512;-44
2022/08/30 01:33:18;;;;;;;3.95;1.38;;;;;;;22.85;38.14;101919.34;16139714;19;129504;-44
2022/08/30 01:38:55;;;;;;;2.33;1.30;;;;;;;22.85;37.80;101910.13;16134905;19;129175;-46
2022/08/30 01:44:17;;;;;;;2.67;1.10;;;;;;;22.84;38.17;101902.88;16140462;19;129216;-50
2022/08/30 01:49:39;;;;;;;3.92;1.40;;;;;;;22.83;38.09;101906.75;16133506;19;129347;-47
2022/08/30 01:55:02;;;;;;;1.92;0.95;;;;;;;22.83;37.93;101898.38;16137239;19;129269;-46
2022/08/30 02:00:24;;;;;;;4.43;1.02;;;;;;;22.83;37.95;101896.41;16134309;19;130133;-44
2022/08/30 02:05:49;;;;;;;1.63;1.00;;;;;;;22.83;38.15;101901.16;16132424;19;129949;-47
2022/08/30 02:11:12;;;;;;;1.63;1.02;;;;;;;22.82;38.16;101899.47;16137012;19;128888;-44
2022/08/30 02:16:33;;;;;;;1.70;1.05;;;;;;;22.82;38.07;101907.84;16132875;19;129361;-45
2022/08/30 02:21:56;;;;;;;2.65;1.00;;;;;;;22.82;38.47;101894.75;16133771;19;130142;-43
2022/08/30 02:27:17;;;;;;;2.67;1.08;;;;;;;22.81;38.16;101898.63;16137411;19;129653;-43
2022/08/30 02:32:40;;;;;;;2.15;0.90;;;;;;;22.82;38.23;101899.47;16136420;19;129551;-43
2022/08/30 02:38:02;;;;;;;2.38;1.10;;;;;;;22.81;38.50;101893.06;16133336;19;129108;-43
2022/08/30 02:43:25;;;;;;;1.83;1.13;;;;;;;22.81;38.41;101872.66;16136470;19;129388;-44
2022/08/30 02:48:50;;;;;;;3.10;1.20;;;;;;;22.80;38.42;101873.75;16130922;19;130280;-46
2022/08/30 02:54:18;;;;;;;2.83;1.27;;;;;;;22.80;38.42;101882.13;16128262;19;129408;-44
2022/08/30 02:59:43;;;;;;;2.00;1.00;;;;;;;22.78;38.44;101865.66;16129900;19;129800;-43
2022/08/30 03:05:06;;;;;;;1.97;0.83;;;;;;;22.77;38.47;101863.97;16134315;19;129010;-43
2022/08/30 03:10:28;;;;;;;2.58;1.10;;;;;;;22.77;38.70;101865.91;16132688;19;130189;-43
2022/08/30 03:15:50;;;;;;;1.98;1.05;;;;;;;22.77;38.48;101865.91;16133360;19;129113;-44
2022/08/30 03:21:14;;;;;;;1.88;0.88;;;;;;;22.76;38.52;101856.69;16130394;19;129645;-44
2022/08/30 03:26:36;;;;;;;2.70;1.05;;;;;;;22.76;38.40;101853.91;16135345;19;129298;-43
2022/08/30 03:31:58;;;;;;;3.95;1.10;;;;;;;22.76;38.65;101858.66;16146125;19;129930;-45
2022/08/30 03:37:20;;;;;;;2.13;1.10;;;;;;;22.74;38.75;101856.97;16148289;19;129792;-43
2022/08/30 03:42:47;;;;;;;3.13;1.27;;;;;;;22.73;38.40;101852.47;16147578;19;129215;-44
2022/08/30 03:48:09;;;;;;;2.88;0.80;;;;;;;22.72;38.38;101864.72;16143453;19;129642;-44
2022/08/30 03:53:31;;;;;;;3.17;1.27;;;;;;;22.71;38.71;101857.44;16148263;19;129889;-43
2022/08/30 03:58:53;;;;;;;1.88;0.95;;;;;;;22.71;38.60;101854.66;16145188;19;130050;-46
2022/08/30 04:04:15;;;;;;;2.45;1.00;;;;;;;22.71;38.49;101871.41;16147274;19;130367;-43
2022/08/30 04:09:41;;;;;;;2.67;1.15;;;;;;;22.70;38.58;101858.53;16147745;19;129171;-43
2022/08/30 04:15:03;;;;;;;2.15;1.20;;;;;;;22.70;38.91;101857.72;16147693;19;130571;-45
2022/08/30 04:20:26;;;;;;;2.05;1.05;;;;;;;22.69;38.57;101870.78;16141799;19;129113;-43
2022/08/30 04:25:47;;;;;;;5.47;1.02;;;;;;;22.69;38.78;101873.59;16146573;19;129909;-43
2022/08/30 04:31:15;;;;;;;2.40;1.23;;;;;;;22.68;38.85;101877.47;16146581;19;130284;-44
2022/08/30 04:36:37;;;;;;;1.52;0.98;;;;;;;22.69;38.78;101884.75;16144915;19;130255;-45
2022/08/30 04:42:02;;;;;;;2.55;1.15;;;;;;;22.67;38.69;101881.34;16143595;19;129506;-43
2022/08/30 04:47:23;;;;;;;2.60;1.05;;;;;;;22.68;38.74;101883.03;16143891;19;129431;-44
2022/08/30 04:52:46;;;;;;;4.40;1.13;;;;;;;22.67;38.76;101878.56;16140922;19;129511;-44
2022/08/30 04:58:09;;;;;;;1.77;0.95;;;;;;;22.66;38.57;101888.03;16143045;19;129114;-44
2022/08/30 05:03:31;;;;;;;1.55;0.95;;;;;;;22.66;38.71;101888.03;16147068;19;129176;-45
2022/08/30 05:08:54;;;;;;;2.05;0.93;;;;;;;22.65;38.88;101883.53;16142230;19;129914;-46
2022/08/30 05:14:16;;;;;;;12.63;1.50;;;;;;;22.66;38.84;101890.81;16141121;19;129812;-44
2022/08/30 05:19:38;;;;;;;3.00;1.10;;;;;;;22.67;38.73;101900.03;16135728;19;128974;-43
2022/08/30 05:24:59;;;;;;;10.60;1.20;;;;;;;22.68;38.99;101905.38;16141746;19;129575;-44
2022/08/30 05:30:24;;;;;;;3.40;1.13;;;;;;;22.68;39.02;101899.78;16142600;19;129342;-45
2022/08/30 05:35:46;;;;;;;5.50;0.93;;;;;;;22.68;39.03;101896.16;16141933;19;128860;-43
2022/08/30 05:41:08;;;;;;;5.07;0.93;;;;;;;22.69;39.03;101912.63;16134692;19;128835;-43
2022/08/30 05:46:32;;;;;;;4.15;1.02;;;;;;;22.69;39.02;101909.84;16138154;19;131023;-43
2022/08/30 05:51:55;;;;;;;2.65;1.00;;;;;;;22.67;39.10;101903.66;16140559;19;128985;-43
2022/08/30 05:57:17;;;;;;;2.75;0.75;;;;;;;22.68;39.14;101901.75;16138330;19;130346;-44
2022/08/30 06:02:40;;;;;;;2.20;0.93;;;;;;;22.69;39.32;101906.22;16138392;19;131725;-42
2022/08/30 06:08:03;;;;;;;4.85;1.10;;;;;;;22.68;39.20;101904.53;16132400;19;129964;-44
2022/08/30 06:13:24;;;;;;;3.53;1.35;;;;;;;22.67;39.14;101903.66;16123696;19;129401;-46
2022/08/30 06:18:47;;;;;;;5.05;1.27;;;;;;;22.73;39.24;101907.41;16120922;19;129393;-44
2022/08/30 06:24:10;;;;;;;3.80;1.67;;;;;;;22.77;39.28;101903.03;16125497;19;129364;-44
2022/08/30 06:29:32;;;;;;;4.95;1.83;;;;;;;22.80;39.60;101899.72;16136723;19;128932;-47
2022/08/30 06:34:53;;;;;;;7.00;1.90;;;;;;;22.82;39.50;101899.47;16136924;19;132509;-44
2022/08/30 06:40:17;;;;;;;9.05;1.80;;;;;;;22.87;39.16;101903.19;16130994;19;129274;-44
2022/08/30 06:45:38;;;;;;;4.18;1.45;;;;;;;22.95;39.34;101904.75;16133002;19;128896;-44
2022/08/30 06:51:00;;;;;;;3.92;1.50;;;;;;;22.99;39.42;101894.81;16133141;19;129843;-46
2022/08/30 06:56:26;;;;;;;8.18;1.50;;;;;;;23.02;39.26;101891.47;16136292;19;129636;-43
2022/08/30 07:01:51;;;;;;;3.00;1.40;;;;;;;23.03;39.61;101895.97;16136496;19;129912;-46
2022/08/30 07:07:13;;;;;;;6.68;1.60;;;;;;;23.04;39.42;101897.66;16152340;19;130236;-45
2022/08/30 07:12:35;;;;;;;2.78;1.00;;;;;;;23.07;39.45;101901.91;16152620;19;129528;-44
2022/08/30 07:23:37;;;;;;;6.78;1.63;;;;;;;23.11;39.33;101910.63;16146325;19;129450;-44
2022/08/30 07:29:00;;;;;;;6.28;1.20;;;;;;;23.14;39.09;101904.53;16144362;19;129408;-43
2022/08/30 07:34:22;;;;;;;3.20;1.20;;;;;;;23.16;39.30;101905.97;16149480;19;130082;-44
2022/08/30 07:39:47;;;;;;;5.60;1.42;;;;;;;23.17;39.73;101906.78;16140433;19;128967;-45
2022/08/30 07:45:10;;;;;;;6.18;1.05;;;;;;;23.18;39.37;101895.41;16146952;19;129468;-44
2022/08/30 07:50:32;;;;;;;5.95;1.48;;;;;;;23.21;39.78;101908.00;16147715;19;130415;-43
2022/08/30 07:55:54;;;;;;;3.58;1.20;;;;;;;23.25;39.35;101903.59;16148633;19;129592;-47
2022/08/30 08:01:17;;;;;;;2.88;1.20;;;;;;;23.29;39.25;101909.50;16144863;19;129043;-42
2022/08/30 08:06:40;;;;;;;2.17;1.17;;;;;;;23.33;39.41;101916.25;16147619;19;130320;-45
2022/08/30 08:12:06;;;;;;;3.08;1.45;;;;;;;23.36;39.53;101918.56;16146265;19;128891;-44
2022/08/30 08:17:28;;;;;;;4.32;1.00;;;;;;;23.38;39.57;101918.31;16145937;19;129441;-43
2022/08/30 08:22:50;;;;;;;2.05;1.05;;;;;;;23.41;39.53;101913.06;16142973;19;129915;-45
2022/08/30 08:28:12;;;;;;;2.97;1.10;;;;;;;23.45;39.49;101914.22;16146117;19;130845;-46
2022/08/30 08:33:34;;;;;;;3.53;1.50;;;;;;;23.49;39.63;101915.41;16141187;19;129270;-43
2022/08/30 08:38:57;;;;;;;4.22;0.98;;;;;;;23.54;39.48;101914.63;16144741;19;129342;-43
2022/08/30 08:44:30;;;;;;;4.65;1.10;;;;;;;23.55;39.42;101910.75;16144585;19;129458;-42
2022/08/30 08:50:00;;;;;;;2.75;1.00;;;;;;;23.58;39.44;101913.06;16138853;19;129705;-44
2022/08/30 08:55:23;;;;;;;8.43;1.17;;;;;;;23.60;39.53;101913.66;16142586;19;130679;-42
2022/08/30 09:00:44;;;;;;;5.43;1.10;;;;;;;23.60;39.48;101919.25;16141076;19;128967;-43
2022/08/30 09:06:29;;;;;;;4.47;1.20;;;;;;;23.63;39.45;101921.50;16138960;19;129674;-44
2022/08/30 09:11:51;;;;;;;4.75;1.20;;;;;;;23.63;39.67;101915.91;16137119;19;130459;-44
2022/08/30 09:17:15;;;;;;;3.45;1.15;;;;;;;23.64;39.37;101912.03;16139450;19;129275;-45
2022/08/30 09:22:42;;;;;;;1.70;0.90;;;;;;;23.65;39.54;101916.50;16137554;19;129693;-47
2022/08/30 09:28:11;;;;;;;2.00;1.00;;;;;;;23.64;39.39;101912.03;16139215;19;129191;-42
2022/08/30 09:33:35;;;;;;;5.35;1.02;;;;;;;23.63;39.42;101921.50;16140450;19;130148;-43
2022/08/30 09:39:13;;;;;;;2.92;1.20;;;;;;;23.65;39.48;101912.88;16138548;19;129432;-41
2022/08/30 09:44:37;;;;;;;2.33;1.10;;;;;;;23.64;39.46;101912.03;16140816;19;130335;-43
2022/08/30 09:50:18;;;;;;;2.00;1.13;;;;;;;23.65;39.24;101915.69;16135338;19;129392;-44
2022/08/30 09:56:05;;;;;;;6.05;1.42;;;;;;;23.64;39.36;101917.59;16140807;19;129613;-44
2022/08/30 10:01:39;;;;;;;3.67;1.05;;;;;;;23.64;39.08;101912.03;16134024;19;128746;-43
2022/08/30 10:07:12;;;;;;;3.58;1.10;;;;;;;23.63;39.72;101901.94;16139441;19;130119;-45
2022/08/30 10:12:38;;;;;;;1.20;0.80;;;;;;;23.64;39.32;101903.66;16138461;19;129075;-48
2022/08/30 10:18:04;;;;;;;3.53;0.90;;;;;;;23.63;39.36;101899.16;16137318;19;129477;-43
2022/08/30 10:23:35;;;;;;;1.42;0.85;;;;;;;23.61;39.63;101904.19;16135400;19;129280;-44
2022/08/30 10:29:05;;;;;;;3.80;1.05;;;;;;;23.59;39.40;101895.22;16136679;19;129299;-44
2022/08/30 10:35:06;;;;;;;7.25;1.52;;;;;;;23.57;39.23;101893.75;16136882;19;129331;-44
2022/08/30 10:46:29;;;;;;;7.65;1.45;;;;;;;23.57;39.34;101888.16;16135366;19;130111;-55
2022/08/30 10:52:11;;;;;;;7.63;1.35;;;;;;;23.62;39.20;101886.31;16137347;19;130173;-54
2022/08/30 10:57:33;;;;;;;16.85;1.70;;;;;;;23.62;39.66;101880.72;16136052;19;129435;-54
2022/08/30 11:03:13;;;;;;;15.77;1.52;;;;;;;23.62;39.61;101875.16;16130610;19;130973;-55
2022/08/30 11:08:44;;;;;;;11.05;1.52;;;;;;;23.60;39.42;101871.75;16135471;19;128870;-54
2022/08/30 11:14:12;;;;;;;11.02;1.23;;;;;;;23.57;39.50;101872.22;16136452;19;129508;-53
2022/08/30 11:19:42;;;;;;;12.77;2.15;;;;;;;23.57;39.27;101869.44;16135037;19;129504;-54
2022/08/30 11:25:10;;;;;;;10.43;1.40;;;;;;;23.56;39.15;101864.97;16126859;19;129499;-54
2022/08/30 11:30:32;;;;;;;11.90;1.52;;;;;;;23.54;39.25;101866.31;16134109;19;128782;-45
2022/08/30 11:35:57;;;;;;;;;;;;;;;23.51;39.21;101862.06;16134462;19;129536;-45
2022/08/30 11:42:11;;;;;;;5.60;1.30;;;;;;;23.51;39.21;101862.06;16131284;19;129116;-47
2022/08/30 11:47:39;;;;;;;8.95;1.70;;;;;;;23.52;39.39;101858.19;16124797;19;129319;-45
2022/08/30 11:53:10;;;;;;;11.55;1.65;;;;;;;23.53;39.35;101853.47;16136813;19;130371;-44
2022/08/30 11:58:50;;;;;;;18.52;1.67;;;;;;;23.55;39.70;101854.88;16136165;19;130792;-44
2022/08/30 12:04:27;;;;;;;13.95;1.80;;;;;;;23.59;39.62;101858.03;16138696;19;129490;-45
2022/08/30 12:09:49;;;;;;;24.20;2.20;;;;;;;23.61;39.50;101858.63;16137793;19;129518;-44
2022/08/30 12:16:01;;;;;;;31.98;3.42;;;;;;;23.63;39.60;101842.47;16140496;19;129438;-44
2022/08/30 12:21:29;;;;;;;16.77;1.77;;;;;;;23.64;39.57;101855.31;16132596;19;129713;-45
2022/08/30 12:27:23;;;;;;;10.90;1.33;;;;;;;23.66;39.50;101864.28;16136223;19;129089;-44
2022/08/30 12:32:46;;;;;;;9.68;1.75;;;;;;;23.65;39.48;101863.44;16137188;19;129385;-44
2022/08/30 12:38:17;;;;;;;11.80;1.42;;;;;;;23.64;39.55;101864.53;16135201;19;129532;-44
2022/08/30 12:43:49;;;;;;;12.85;1.20;;;;;;;23.66;39.31;101876.31;16135786;19;130591;-45
2022/08/30 12:49:14;;;;;;;10.60;1.65;;;;;;;23.66;39.43;101862.34;16130534;19;129622;-44
2022/08/30 12:54:39;;;;;;;7.53;1.63;;;;;;;23.67;39.22;101863.19;16136157;19;131867;-45
2022/08/30 13:00:09;;;;;;;8.75;1.35;;;;;;;23.68;39.30;101866.81;16138630;19;129392;-45
2022/08/30 13:05:41;;;;;;;5.95;1.40;;;;;;;23.68;39.20;101855.66;16145189;19;129402;-45
2022/08/30 13:11:23;;;;;;;6.68;1.20;;;;;;;23.68;39.56;101841.69;16146064;19;129558;-46
2022/08/30 13:16:49;;;;;;;4.60;1.10;;;;;;;23.68;39.06;101838.88;16141104;19;129676;-46
2022/08/30 13:22:23;;;;;;;5.72;1.10;;;;;;;23.70;39.07;101845.06;16138832;19;132792;-45
2022/08/30 13:27:47;;;;;;;3.40;1.00;;;;;;;23.67;39.08;101815.72;16139552;19;130013;-48
2022/08/30 13:33:10;;;;;;;3.65;1.00;;;;;;;23.67;39.08;101818.50;16143500;19;129694;-47
2022/08/30 13:38:32;;;;;;;8.52;1.50;;;;;;;23.66;39.00;101820.44;16139867;19;129680;-44
2022/08/30 13:43:56;;;;;;;4.00;1.07;;;;;;;23.65;39.11;101818.75;16137103;19;129181;-46
2022/08/30 13:49:38;;;;;;;7.47;1.20;;;;;;;23.65;39.11;101824.31;16133817;19;129448;-44
2022/08/30 13:55:08;;;;;;;4.43;1.10;;;;;;;23.63;38.90;101812.56;16139054;19;128918;-45
2022/08/30 14:00:30;;;;;;;5.25;0.88;;;;;;;23.62;39.07;101802.53;16136804;19;129088;-45
2022/08/30 14:05:58;;;;;;;7.90;1.30;;;;;;;23.61;38.71;101812.00;16138823;19;130187;-44
2022/08/30 14:11:40;;;;;;;5.00;0.85;;;;;;;23.62;38.83;101798.88;16137923;19;129041;-45
2022/08/30 14:17:02;;;;;;;3.72;0.90;;;;;;;23.60;38.52;101804.72;16138090;19;129909;-44
2022/08/30 14:22:24;;;;;;;8.27;1.02;;;;;;;23.61;38.10;101808.34;16132779;19;129588;-46
2022/08/30 14:27:46;;;;;;;3.85;1.17;;;;;;;23.61;38.53;101805.56;16136414;19;129360;-46
2022/08/30 14:33:08;;;;;;;7.38;1.20;;;;;;;23.61;38.37;101799.97;16137942;19;129069;-44
2022/08/30 14:38:30;;;;;;;4.35;1.10;;;;;;;23.62;38.42;101804.44;16130585;19;129280;-45
2022/08/30 14:43:52;;;;;;;4.38;0.90;;;;;;;23.62;38.52;101812.84;16129957;19;129086;-45
2022/08/30 14:49:15;;;;;;;5.95;0.93;;;;;;;23.63;38.01;101808.94;16133283;19;129108;-44
2022/08/30 14:54:37;;;;;;;6.88;1.48;;;;;;;23.62;38.05;101791.34;16135094;19;129357;-47
2022/08/30 14:59:58;;;;;;;3.60;1.10;;;;;;;23.63;38.24;101793.00;16134989;19;130299;-44
2022/08/30 15:05:20;;;;;;;3.55;1.20;;;;;;;23.64;38.18;101794.69;16135606;19;129366;-46
2022/08/30 15:10:42;;;;;;;3.17;0.90;;;;;;;23.63;38.16;101793.00;16134545;19;129867;-45
2022/08/30 15:16:30;;;;;;;6.35;0.90;;;;;;;23.63;38.03;101781.84;16128706;19;129116;-44
2022/08/30 15:21:52;;;;;;;8.52;1.35;;;;;;;23.63;38.18;101781.00;16129745;19;129365;-45
2022/08/30 15:27:14;;;;;;;8.07;1.10;;;;;;;23.64;38.05;101791.06;16145474;19;129823;-46
2022/08/30 15:32:35;;;;;;;4.90;1.20;;;;;;;23.64;38.04;101783.53;16149065;19;129182;-45
2022/08/30 15:37:57;;;;;;;11.25;1.20;;;;;;;23.66;38.29;101791.66;16147724;19;129710;-44
2022/08/30 15:43:19;;;;;;;6.20;1.30;;;;;;;23.65;38.20;101785.22;16141498;19;129824;-45
2022/08/30 15:48:42;;;;;;;11.07;1.40;;;;;;;23.65;38.47;101782.41;16142719;19;129112;-46
2022/08/30 15:54:06;;;;;;;5.05;1.42;;;;;;;23.66;38.24;101767.34;16142781;19;128992;-43
2022/08/30 15:59:29;;;;;;;9.85;3.65;;;;;;;23.68;38.68;101774.63;16142354;19;130112;-48
2022/08/30 16:04:51;;;;;;;11.68;2.65;;;;;;;23.69;39.77;101773.53;16146529;19;129970;-44
2022/08/30 16:10:13;;;;;;;11.23;3.20;;;;;;;23.70;39.36;101772.44;16142683;19;132554;-44
2022/08/30 16:15:38;;;;;;;15.32;2.55;;;;;;;23.68;39.31;101761.53;16142189;19;129503;-44
2022/08/30 16:21:09;;;;;;;7.32;2.10;;;;;;;23.68;39.43;101763.47;16141923;19;130488;-44
2022/08/30 16:26:34;;;;;;;7.05;2.28;;;;;;;23.64;38.75;101760.34;16142045;19;129661;-45
2022/08/30 16:31:56;;;;;;;7.22;2.10;;;;;;;23.65;38.51;101757.28;16140415;19;129381;-42
2022/08/30 16:37:18;;;;;;;6.22;1.45;;;;;;;23.67;38.43;101759.84;16144310;19;129434;-44
2022/08/30 16:42:40;;;;;;;6.90;1.58;;;;;;;23.70;38.49;101764.03;16140447;19;129157;-44
2022/08/30 16:48:02;;;;;;;6.50;1.42;;;;;;;23.72;37.64;101756.25;16142079;19;129453;-42
2022/08/30 16:53:25;;;;;;;5.03;1.00;;;;;;;23.74;37.71;101768.00;16141555;19;130357;-45
2022/08/30 16:58:47;;;;;;;11.18;1.40;;;;;;;23.75;37.19;101772.50;16142511;19;130005;-45
2022/08/30 17:04:11;;;;;;;4.72;1.05;;;;;;;23.77;37.40;101781.44;16139974;19;129765;-49
2022/08/30 17:09:38;;;;;;;4.10;1.13;;;;;;;23.79;37.30;101776.44;16137137;19;129539;-46
2022/08/30 17:15:01;;;;;;;12.07;1.52;;;;;;;23.80;37.16;101781.78;16140373;19;130727;-47
2022/08/30 17:20:29;;;;;;;6.85;1.23;;;;;;;23.82;36.88;101773.13;16138198;19;128925;-43
2022/08/30 17:25:55;;;;;;;10.73;1.50;;;;;;;23.82;36.92;101784.31;16134600;19;130424;-47
2022/08/30 17:31:17;;;;;;;7.38;1.27;;;;;;;23.82;36.51;101787.94;16140131;19;128963;-44
2022/08/30 17:36:40;;;;;;;7.78;0.88;;;;;;;23.85;37.07;101788.53;16140465;19;129436;-45
2022/08/30 17:42:04;;;;;;;3.17;1.00;;;;;;;23.85;36.83;101800.56;16136149;19;129398;-47
2022/08/30 17:47:26;;;;;;;7.70;1.00;;;;;;;23.87;36.64;101817.91;16136018;19;129984;-50
2022/08/30 17:52:49;;;;;;;4.20;0.93;;;;;;;23.88;36.53;101819.56;16132795;19;129096;-48
2022/08/30 17:58:10;;;;;;;2.75;1.00;;;;;;;23.90;36.59;101820.16;16137523;19;129193;-45
2022/08/30 18:03:32;;;;;;;6.63;1.00;;;;;;;23.93;36.58;101835.59;16133672;19;128947;-43
2022/08/30 18:08:54;;;;;;;5.53;1.25;;;;;;;23.92;36.24;101828.31;16137160;19;129328;-47
2022/08/30 18:14:17;;;;;;;2.17;0.80;;;;;;;23.91;36.47;101833.03;16135580;19;129778;-46
2022/08/30 18:19:39;;;;;;;3.15;1.00;;;;;;;23.90;36.16;101839.72;16133139;19;129436;-64
2022/08/30 18:25:08;;;;;;;5.43;1.00;;;;;;;23.82;35.96;101840.19;16129244;19;130015;-64
2022/08/30 18:30:30;;;;;;;3.00;0.80;;;;;;;23.76;36.30;101846.81;16135279;19;130047;-59
2022/08/30 18:36:00;;;;;;;5.07;0.95;;;;;;;23.74;36.51;101860.22;16137275;19;130110;-60
2022/08/30 18:41:22;;;;;;;4.97;1.20;;;;;;;23.70;36.08;101854.28;16133951;19;128996;-59
2022/08/30 18:46:44;;;;;;;5.70;0.90;;;;;;;23.68;36.21;101853.72;16134395;19;131405;-58
2022/08/30 18:52:17;;;;;;;5.63;0.85;;;;;;;23.65;35.75;101860.63;16133802;19;129918;-58
2022/08/30 18:57:39;;;;;;;3.55;1.00;;;;;;;23.64;35.86;101866.50;16136983;19;129468;-59
2022/08/30 19:03:01;;;;;;;2.50;0.95;;;;;;;23.62;35.90;101869.56;16146783;19;130138;-58
2022/08/30 19:08:23;;;;;;;7.88;1.40;;;;;;;23.60;35.82;101870.91;16148364;19;129278;-59
2022/08/30 19:13:45;;;;;;;4.03;1.10;;;;;;;23.57;35.77;101889.00;16148198;19;129783;-58
2022/08/30 19:19:08;;;;;;;3.97;0.95;;;;;;;23.54;35.66;101889.50;16149352;19;130373;-60
2022/08/30 19:24:33;;;;;;;2.85;0.82;;;;;;;23.53;35.83;101884.19;16142282;19;129313;-60
2022/08/30 19:29:56;;;;;;;1.90;1.00;;;;;;;23.50;35.52;101902.31;16149253;19;129869;-58
2022/08/30 19:35:19;;;;;;;3.58;1.02;;;;;;;23.48;35.56;101891.38;16148877;19;128907;-59
2022/08/30 19:40:40;;;;;;;1.83;0.77;;;;;;;23.46;35.51;101901.13;16146511;19;129972;-60
2022/08/30 19:46:05;;;;;;;3.08;0.80;;;;;;;23.44;35.64;101903.31;16145636;19;129019;-59
2022/08/30 19:51:28;;;;;;;1.45;0.90;;;;;;;23.41;35.71;101903.81;16146874;19;129474;-60
2022/08/30 19:56:51;;;;;;;1.95;0.90;;;;;;;23.40;35.74;101899.34;16148610;19;129279;-59
2022/08/30 20:02:13;;;;;;;1.42;0.77;;;;;;;23.38;35.73;101907.97;16143882;19;129738;-59
2022/08/30 20:07:36;;;;;;;3.42;0.82;;;;;;;23.38;35.81;101902.41;16146104;19;129635;-59
2022/08/30 20:12:58;;;;;;;1.25;0.80;;;;;;;23.35;35.78;101914.94;16145638;19;129408;-59
2022/08/30 20:18:19;;;;;;;1.83;0.77;;;;;;;23.33;35.99;101905.94;16143631;19;130024;-60
2022/08/30 20:23:42;;;;;;;3.97;0.70;;;;;;;23.32;36.03;101914.59;16142034;19;129370;-59
2022/08/30 20:29:06;;;;;;;1.55;0.80;;;;;;;23.34;35.86;101917.94;16133543;19;129426;-59
2022/08/30 20:34:27;;;;;;;1.63;0.60;;;;;;;23.30;35.86;101917.63;16142363;19;129636;-59
2022/08/30 20:39:50;;;;;;;2.13;0.80;;;;;;;23.29;35.65;101915.94;16140721;19;129395;-59
2022/08/30 20:45:14;;;;;;;3.55;0.90;;;;;;;23.30;36.06;101914.84;16136481;19;129652;-59
2022/08/30 20:50:37;;;;;;;1.38;0.85;;;;;;;23.28;35.99;101919.81;16142407;19;131633;-59
2022/08/30 20:55:59;;;;;;;1.75;0.77;;;;;;;23.26;35.99;101913.66;16138230;19;130076;-60
2022/08/30 21:01:22;;;;;;;2.15;0.90;;;;;;;23.24;35.72;101923.38;16140257;19;129887;-63
2022/08/30 21:06:44;;;;;;;6.22;0.98;;;;;;;23.25;36.47;101923.16;16138134;19;129446;-63
2022/08/30 21:12:06;;;;;;;8.77;1.27;;;;;;;23.29;36.84;101932.69;16137337;19;129628;-60
2022/08/30 21:17:29;;;;;;;3.28;1.00;;;;;;;23.31;36.24;101924.91;16135651;19;129814;-59
2022/08/30 21:22:50;;;;;;;3.08;0.90;;;;;;;23.32;36.55;101936.94;16127923;19;129447;-59
2022/08/30 21:28:12;;;;;;;2.50;0.98;;;;;;;23.31;36.75;101924.06;16132813;19;129358;-59
2022/08/30 21:33:37;;;;;;;5.95;1.00;;;;;;;23.28;36.59;101925.41;16136424;19;129487;-59
2022/08/30 21:38:59;;;;;;;3.08;0.90;;;;;;;23.27;36.11;101926.50;16140182;19;129507;-59
2022/08/30 21:44:25;;;;;;;3.50;1.10;;;;;;;23.25;36.31;101925.06;16134741;19;129909;-59
2022/08/30 21:49:46;;;;;;;1.90;0.80;;;;;;;23.24;36.17;101921.44;16132966;19;130617;-59
2022/08/30 21:55:08;;;;;;;1.98;0.80;;;;;;;23.21;36.23;101924.75;16136768;19;129385;-59
2022/08/30 22:00:32;;;;;;;2.33;0.70;;;;;;;23.20;36.13;101928.63;16136556;19;129670;-60
2022/08/30 22:05:54;;;;;;;2.03;0.77;;;;;;;23.19;36.35;101943.69;16137873;19;129430;-59
2022/08/30 22:11:20;;;;;;;2.47;1.00;;;;;;;23.20;36.16;101945.38;16136678;19;129295;-59
2022/08/30 22:16:42;;;;;;;1.67;0.73;;;;;;;23.18;36.05;101942.00;16136706;19;129044;-60
2022/08/30 22:22:04;;;;;;;2.17;0.68;;;;;;;23.15;36.12;101936.91;16129905;19;130087;-59
2022/08/30 22:27:26;;;;;;;1.77;0.60;;;;;;;23.14;36.32;101940.81;16132448;19;129450;-59
2022/08/30 22:32:48;;;;;;;1.80;0.85;;;;;;;23.13;36.03;101942.75;16131655;19;129578;-59
2022/08/30 22:38:13;;;;;;;3.05;0.93;;;;;;;23.13;36.16;101939.13;16133177;19;129666;-59
2022/08/30 22:43:35;;;;;;;2.97;0.90;;;;;;;23.12;36.00;101943.84;16128039;19;129392;-59
2022/08/30 22:48:57;;;;;;;1.10;0.60;;;;;;;23.10;35.90;101940.47;16126706;19;129452;-60
2022/08/30 22:54:18;;;;;;;0.52;0.50;;;;;;;23.10;36.05;101939.63;16132587;19;129534;-59
2022/08/30 22:59:41;;;;;;;4.15;0.90;;;;;;;23.10;35.86;101948.00;16132678;19;129342;-58
2022/08/30 23:05:03;;;;;;;0.88;0.57;;;;;;;23.08;35.94;101948.22;16129076;19;129070;-58
2022/08/30 23:10:27;;;;;;;1.05;0.68;;;;;;;23.08;36.14;101942.66;16133266;19;132227;-59
2022/08/30 23:15:48;;;;;;;1.65;0.70;;;;;;;23.07;36.21;101946.56;16131171;19;129285;-58
2022/08/30 23:21:19;;;;;;;0.80;0.50;;;;;;;23.08;36.15;101947.41;16133151;19;130311;-58
